sensor_id;sensor_type;location;lat;lon;timestamp;temperature;humidity
3626;DHT22;1827;50.534;8.316;2023-07-20T00:02:19;15.60;99.90
3626;DHT22;1827;50.534;8.316;2023-07-20T00:04:45;15.50;99.90
3626;DHT22;1827;50.534;8.316;2023-07-20T00:07:10;15.50;99.90
3626;DHT22;1827;50.534;8.316;2023-07-20T00:09:36;15.40;99.90
3626;DHT22;1827;50.534;8.316;2023-07-20T00:12:01;15.20;99.90
3626;DHT22;1827;50.534;8.316;2023-07-20T00:14:27;15.10;99.90
3626;DHT22;1827;50.534;8.316;2023-07-20T00:16:54;15.00;99.90
3626;DHT22;1827;50.534;8.316;2023-07-20T00:19:23;15.00;99.90
3626;DHT22;1827;50.534;8.316;2023-07-20T00:21:49;14.80;99.90
3626;DHT22;1827;50.534;8.316;2023-07-20T00:24:15;14.70;99.90
3626;DHT22;1827;50.534;8.316;2023-07-20T00:26:40;14.70;99.90
3626;DHT22;1827;50.534;8.316;2023-07-20T00:29:06;14.70;99.90
3626;DHT22;1827;50.534;8.316;2023-07-20T00:31:32;14.70;99.90
3626;DHT22;1827;50.534;8.316;2023-07-20T00:33:57;14.70;99.90
3626;DHT22;1827;50.534;8.316;2023-07-20T00:36:23;14.50;99.90
3626;DHT22;1827;50.534;8.316;2023-07-20T00:38:48;14.40;99.90
3626;DHT22;1827;50.534;8.316;2023-07-20T00:41:17;14.30;99.90
3626;DHT22;1827;50.534;8.316;2023-07-20T00:43:42;14.30;99.90
3626;DHT22;1827;50.534;8.316;2023-07-20T00:46:08;14.20;1.00
3626;DHT22;1827;50.534;8.316;2023-07-20T00:48:34;14.20;1.00
3626;DHT22;1827;50.534;8.316;2023-07-20T00:51:01;14.20;1.00
3626;DHT22;1827;50.534;8.316;2023-07-20T00:53:27;14.20;1.00
3626;DHT22;1827;50.534;8.316;2023-07-20T00:55:53;14.10;1.00
3626;DHT22;1827;50.534;8.316;2023-07-20T00:58:19;13.90;1.00
3626;DHT22;1827;50.534;8.316;2023-07-20T01:00:45;13.90;1.00
3626;DHT22;1827;50.534;8.316;2023-07-20T01:03:12;13.80;1.00
3626;DHT22;1827;50.534;8.316;2023-07-20T01:05:40;13.70;1.00
3626;DHT22;1827;50.534;8.316;2023-07-20T01:08:10;13.70;1.00
3626;DHT22;1827;50.534;8.316;2023-07-20T01:10:41;13.60;1.00
3626;DHT22;1827;50.534;8.316;2023-07-20T01:13:09;13.50;1.00
3626;DHT22;1827;50.534;8.316;2023-07-20T01:15:37;13.50;1.00
3626;DHT22;1827;50.534;8.316;2023-07-20T01:18:03;13.50;1.00
3626;DHT22;1827;50.534;8.316;2023-07-20T01:20:30;13.50;1.00
3626;DHT22;1827;50.534;8.316;2023-07-20T01:28:09;13.50;1.00
3626;DHT22;1827;50.534;8.316;2023-07-20T01:33:22;13.60;1.00
3626;DHT22;1827;50.534;8.316;2023-07-20T01:35:52;13.70;1.00
3626;DHT22;1827;50.534;8.316;2023-07-20T01:38:18;13.70;1.00
3626;DHT22;1827;50.534;8.316;2023-07-20T01:40:44;13.70;1.00
3626;DHT22;1827;50.534;8.316;2023-07-20T01:43:10;13.80;1.00
3626;DHT22;1827;50.534;8.316;2023-07-20T01:45:36;13.70;1.00
3626;DHT22;1827;50.534;8.316;2023-07-20T01:48:02;13.80;1.00
3626;DHT22;1827;50.534;8.316;2023-07-20T01:50:29;13.80;1.00
3626;DHT22;1827;50.534;8.316;2023-07-20T01:52:55;13.80;1.00
3626;DHT22;1827;50.534;8.316;2023-07-20T01:55:20;13.80;1.00
3626;DHT22;1827;50.534;8.316;2023-07-20T01:57:46;13.90;1.00
3626;DHT22;1827;50.534;8.316;2023-07-20T02:00:12;13.90;1.00
3626;DHT22;1827;50.534;8.316;2023-07-20T02:02:40;14.10;1.00
3626;DHT22;1827;50.534;8.316;2023-07-20T02:05:06;14.10;1.00
3626;DHT22;1827;50.534;8.316;2023-07-20T02:07:32;14.10;1.00
3626;DHT22;1827;50.534;8.316;2023-07-20T02:09:58;14.10;1.00
3626;DHT22;1827;50.534;8.316;2023-07-20T02:12:24;14.10;1.00
3626;DHT22;1827;50.534;8.316;2023-07-20T02:14:49;14.10;1.00
3626;DHT22;1827;50.534;8.316;2023-07-20T02:17:16;14.20;1.00
3626;DHT22;1827;50.534;8.316;2023-07-20T02:19:42;14.10;1.00
3626;DHT22;1827;50.534;8.316;2023-07-20T02:22:07;14.20;1.00
3626;DHT22;1827;50.534;8.316;2023-07-20T02:24:33;14.20;1.00
3626;DHT22;1827;50.534;8.316;2023-07-20T02:26:59;14.20;1.00
3626;DHT22;1827;50.534;8.316;2023-07-20T02:29:25;14.20;1.00
3626;DHT22;1827;50.534;8.316;2023-07-20T02:31:50;14.20;1.00
3626;DHT22;1827;50.534;8.316;2023-07-20T02:34:16;14.20;1.00
3626;DHT22;1827;50.534;8.316;2023-07-20T02:36:41;14.10;1.00
3626;DHT22;1827;50.534;8.316;2023-07-20T02:39:08;14.10;1.00
3626;DHT22;1827;50.534;8.316;2023-07-20T02:41:34;14.10;1.00
3626;DHT22;1827;50.534;8.316;2023-07-20T02:44:00;14.10;1.00
3626;DHT22;1827;50.534;8.316;2023-07-20T02:46:26;14.10;1.00
3626;DHT22;1827;50.534;8.316;2023-07-20T02:48:52;14.10;1.00
3626;DHT22;1827;50.534;8.316;2023-07-20T02:51:17;14.10;1.00
3626;DHT22;1827;50.534;8.316;2023-07-20T02:53:43;14.10;1.00
3626;DHT22;1827;50.534;8.316;2023-07-20T02:56:09;14.20;1.00
3626;DHT22;1827;50.534;8.316;2023-07-20T02:58:34;14.20;1.00
3626;DHT22;1827;50.534;8.316;2023-07-20T03:01:04;14.00;1.00
3626;DHT22;1827;50.534;8.316;2023-07-20T03:03:29;13.90;1.00
3626;DHT22;1827;50.534;8.316;2023-07-20T03:05:55;14.00;1.00
3626;DHT22;1827;50.534;8.316;2023-07-20T03:08:23;14.10;1.00
3626;DHT22;1827;50.534;8.316;2023-07-20T03:10:49;14.20;1.00
3626;DHT22;1827;50.534;8.316;2023-07-20T03:13:15;14.30;1.00
3626;DHT22;1827;50.534;8.316;2023-07-20T03:15:41;14.30;1.00
3626;DHT22;1827;50.534;8.316;2023-07-20T03:18:08;14.30;1.00
3626;DHT22;1827;50.534;8.316;2023-07-20T03:20:34;14.20;1.00
3626;DHT22;1827;50.534;8.316;2023-07-20T03:23:00;14.20;1.00
3626;DHT22;1827;50.534;8.316;2023-07-20T03:25:26;14.10;1.00
3626;DHT22;1827;50.534;8.316;2023-07-20T03:27:51;14.20;1.00
3626;DHT22;1827;50.534;8.316;2023-07-20T03:30:17;14.30;1.00
3626;DHT22;1827;50.534;8.316;2023-07-20T03:32:43;14.20;1.00
3626;DHT22;1827;50.534;8.316;2023-07-20T03:35:09;14.10;1.00
3626;DHT22;1827;50.534;8.316;2023-07-20T03:37:34;14.00;1.00
3626;DHT22;1827;50.534;8.316;2023-07-20T03:40:02;13.90;1.00
3626;DHT22;1827;50.534;8.316;2023-07-20T03:42:28;13.90;1.00
3626;DHT22;1827;50.534;8.316;2023-07-20T03:44:53;13.80;1.00
3626;DHT22;1827;50.534;8.316;2023-07-20T03:47:20;13.80;1.00
3626;DHT22;1827;50.534;8.316;2023-07-20T03:49:45;13.90;1.00
3626;DHT22;1827;50.534;8.316;2023-07-20T03:52:11;14.00;1.00
3626;DHT22;1827;50.534;8.316;2023-07-20T03:54:37;14.00;1.00
3626;DHT22;1827;50.534;8.316;2023-07-20T03:57:02;14.00;1.00
3626;DHT22;1827;50.534;8.316;2023-07-20T03:59:28;14.10;1.00
3626;DHT22;1827;50.534;8.316;2023-07-20T04:01:54;14.10;1.00
3626;DHT22;1827;50.534;8.316;2023-07-20T04:04:19;14.10;1.00
3626;DHT22;1827;50.534;8.316;2023-07-20T04:06:45;14.20;1.00
3626;DHT22;1827;50.534;8.316;2023-07-20T04:09:11;14.10;1.00
3626;DHT22;1827;50.534;8.316;2023-07-20T04:11:37;14.10;1.00
3626;DHT22;1827;50.534;8.316;2023-07-20T04:14:02;14.00;1.00
3626;DHT22;1827;50.534;8.316;2023-07-20T04:16:31;14.10;1.00
3626;DHT22;1827;50.534;8.316;2023-07-20T04:18:58;14.10;1.00
3626;DHT22;1827;50.534;8.316;2023-07-20T04:21:25;14.20;1.00
3626;DHT22;1827;50.534;8.316;2023-07-20T04:23:51;14.50;1.00
3626;DHT22;1827;50.534;8.316;2023-07-20T04:26:17;14.50;1.00
3626;DHT22;1827;50.534;8.316;2023-07-20T04:28:43;14.40;1.00
3626;DHT22;1827;50.534;8.316;2023-07-20T04:31:12;14.40;1.00
3626;DHT22;1827;50.534;8.316;2023-07-20T04:33:38;14.30;1.00
3626;DHT22;1827;50.534;8.316;2023-07-20T04:36:04;14.30;1.00
3626;DHT22;1827;50.534;8.316;2023-07-20T04:38:33;14.30;1.00
3626;DHT22;1827;50.534;8.316;2023-07-20T04:41:25;14.40;1.00
3626;DHT22;1827;50.534;8.316;2023-07-20T04:43:53;14.50;1.00
3626;DHT22;1827;50.534;8.316;2023-07-20T04:46:26;14.60;1.00
3626;DHT22;1827;50.534;8.316;2023-07-20T04:48:52;14.70;1.00
3626;DHT22;1827;50.534;8.316;2023-07-20T04:51:18;14.80;1.00
3626;DHT22;1827;50.534;8.316;2023-07-20T04:53:47;14.80;1.00
3626;DHT22;1827;50.534;8.316;2023-07-20T04:56:14;14.90;1.00
3626;DHT22;1827;50.534;8.316;2023-07-20T04:58:39;15.10;1.00
3626;DHT22;1827;50.534;8.316;2023-07-20T05:01:05;15.10;1.00
3626;DHT22;1827;50.534;8.316;2023-07-20T05:03:32;15.10;1.00
3626;DHT22;1827;50.534;8.316;2023-07-20T05:05:58;15.10;1.00
3626;DHT22;1827;50.534;8.316;2023-07-20T05:08:24;15.20;1.00
3626;DHT22;1827;50.534;8.316;2023-07-20T05:10:50;15.30;1.00
3626;DHT22;1827;50.534;8.316;2023-07-20T05:13:16;15.40;1.00
3626;DHT22;1827;50.534;8.316;2023-07-20T05:15:42;15.70;1.00
3626;DHT22;1827;50.534;8.316;2023-07-20T05:18:13;15.80;1.00
3626;DHT22;1827;50.534;8.316;2023-07-20T05:20:39;16.00;1.00
3626;DHT22;1827;50.534;8.316;2023-07-20T05:23:05;16.10;1.00
3626;DHT22;1827;50.534;8.316;2023-07-20T05:25:30;16.10;1.00
3626;DHT22;1827;50.534;8.316;2023-07-20T05:27:56;16.10;1.00
3626;DHT22;1827;50.534;8.316;2023-07-20T05:30:22;16.10;1.00
3626;DHT22;1827;50.534;8.316;2023-07-20T05:32:47;16.30;1.00
3626;DHT22;1827;50.534;8.316;2023-07-20T05:35:19;16.40;1.00
3626;DHT22;1827;50.534;8.316;2023-07-20T05:37:45;16.60;1.00
3626;DHT22;1827;50.534;8.316;2023-07-20T05:40:10;16.50;1.00
3626;DHT22;1827;50.534;8.316;2023-07-20T05:42:40;16.70;1.00
3626;DHT22;1827;50.534;8.316;2023-07-20T05:45:06;16.90;1.00
3626;DHT22;1827;50.534;8.316;2023-07-20T05:47:32;16.90;1.00
3626;DHT22;1827;50.534;8.316;2023-07-20T05:49:58;16.90;1.00
3626;DHT22;1827;50.534;8.316;2023-07-20T05:52:23;17.20;1.00
3626;DHT22;1827;50.534;8.316;2023-07-20T05:54:49;17.50;1.00
3626;DHT22;1827;50.534;8.316;2023-07-20T05:57:14;17.90;99.90
3626;DHT22;1827;50.534;8.316;2023-07-20T05:59:40;18.00;99.90
3626;DHT22;1827;50.534;8.316;2023-07-20T06:02:09;18.20;99.90
3626;DHT22;1827;50.534;8.316;2023-07-20T06:04:35;17.80;99.90
3626;DHT22;1827;50.534;8.316;2023-07-20T06:07:00;17.60;99.90
3626;DHT22;1827;50.534;8.316;2023-07-20T06:09:26;17.50;99.90
3626;DHT22;1827;50.534;8.316;2023-07-20T06:11:52;17.60;99.90
3626;DHT22;1827;50.534;8.316;2023-07-20T06:14:18;17.80;99.90
3626;DHT22;1827;50.534;8.316;2023-07-20T06:16:44;17.80;99.90
3626;DHT22;1827;50.534;8.316;2023-07-20T06:19:10;18.00;99.90
3626;DHT22;1827;50.534;8.316;2023-07-20T06:21:39;18.10;99.90
3626;DHT22;1827;50.534;8.316;2023-07-20T06:24:04;18.20;99.90
3626;DHT22;1827;50.534;8.316;2023-07-20T06:26:30;18.10;99.90
3626;DHT22;1827;50.534;8.316;2023-07-20T06:28:56;18.40;99.90
3626;DHT22;1827;50.534;8.316;2023-07-20T06:31:21;18.40;99.90
3626;DHT22;1827;50.534;8.316;2023-07-20T06:33:47;18.50;99.90
3626;DHT22;1827;50.534;8.316;2023-07-20T06:36:12;18.70;99.90
3626;DHT22;1827;50.534;8.316;2023-07-20T06:38:38;18.90;99.90
3626;DHT22;1827;50.534;8.316;2023-07-20T06:41:04;18.90;99.90
3626;DHT22;1827;50.534;8.316;2023-07-20T06:43:29;19.00;99.90
3626;DHT22;1827;50.534;8.316;2023-07-20T06:45:55;19.30;99.90
3626;DHT22;1827;50.534;8.316;2023-07-20T06:48:21;19.40;99.90
3626;DHT22;1827;50.534;8.316;2023-07-20T06:50:46;19.70;99.90
3626;DHT22;1827;50.534;8.316;2023-07-20T06:53:13;19.80;99.90
3626;DHT22;1827;50.534;8.316;2023-07-20T06:55:38;19.70;99.90
3626;DHT22;1827;50.534;8.316;2023-07-20T06:58:04;19.50;99.90
3626;DHT22;1827;50.534;8.316;2023-07-20T07:00:30;19.50;99.90
3626;DHT22;1827;50.534;8.316;2023-07-20T07:02:55;19.20;99.90
3626;DHT22;1827;50.534;8.316;2023-07-20T07:05:21;19.10;99.90
3626;DHT22;1827;50.534;8.316;2023-07-20T07:07:47;19.20;99.90
3626;DHT22;1827;50.534;8.316;2023-07-20T07:10:12;19.20;99.90
3626;DHT22;1827;50.534;8.316;2023-07-20T07:12:39;19.30;99.90
3626;DHT22;1827;50.534;8.316;2023-07-20T07:15:04;19.40;99.90
3626;DHT22;1827;50.534;8.316;2023-07-20T07:17:31;19.30;99.90
3626;DHT22;1827;50.534;8.316;2023-07-20T07:19:58;19.40;99.90
3626;DHT22;1827;50.534;8.316;2023-07-20T07:22:23;20.30;99.90
3626;DHT22;1827;50.534;8.316;2023-07-20T07:24:49;20.90;99.90
3626;DHT22;1827;50.534;8.316;2023-07-20T07:27:15;21.00;99.90
3626;DHT22;1827;50.534;8.316;2023-07-20T07:29:43;20.00;99.90
3626;DHT22;1827;50.534;8.316;2023-07-20T07:32:10;20.20;99.90
3626;DHT22;1827;50.534;8.316;2023-07-20T07:34:36;20.40;99.90
3626;DHT22;1827;50.534;8.316;2023-07-20T07:37:02;20.20;99.90
3626;DHT22;1827;50.534;8.316;2023-07-20T07:39:28;19.90;99.90
3626;DHT22;1827;50.534;8.316;2023-07-20T07:41:55;19.80;99.90
3626;DHT22;1827;50.534;8.316;2023-07-20T07:44:20;19.90;99.90
3626;DHT22;1827;50.534;8.316;2023-07-20T07:46:46;19.90;99.90
3626;DHT22;1827;50.534;8.316;2023-07-20T07:49:12;20.10;99.90
3626;DHT22;1827;50.534;8.316;2023-07-20T07:51:38;20.60;99.90
3626;DHT22;1827;50.534;8.316;2023-07-20T07:54:03;20.30;99.90
3626;DHT22;1827;50.534;8.316;2023-07-20T07:56:29;20.40;99.90
3626;DHT22;1827;50.534;8.316;2023-07-20T07:58:54;20.60;99.90
3626;DHT22;1827;50.534;8.316;2023-07-20T08:01:20;21.00;99.90
3626;DHT22;1827;50.534;8.316;2023-07-20T08:03:46;21.00;99.90
3626;DHT22;1827;50.534;8.316;2023-07-20T08:06:13;20.70;99.90
3626;DHT22;1827;50.534;8.316;2023-07-20T08:08:38;21.20;99.90
3626;DHT22;1827;50.534;8.316;2023-07-20T08:11:04;21.80;99.90
3626;DHT22;1827;50.534;8.316;2023-07-20T08:13:29;22.40;99.90
3626;DHT22;1827;50.534;8.316;2023-07-20T08:15:55;21.80;99.90
3626;DHT22;1827;50.534;8.316;2023-07-20T08:18:20;21.40;99.90
3626;DHT22;1827;50.534;8.316;2023-07-20T08:20:47;21.10;99.90
3626;DHT22;1827;50.534;8.316;2023-07-20T08:23:12;21.40;99.90
3626;DHT22;1827;50.534;8.316;2023-07-20T08:25:41;21.60;99.90
3626;DHT22;1827;50.534;8.316;2023-07-20T08:28:09;21.60;99.90
3626;DHT22;1827;50.534;8.316;2023-07-20T08:30:42;21.60;99.90
3626;DHT22;1827;50.534;8.316;2023-07-20T08:33:08;22.30;99.90
3626;DHT22;1827;50.534;8.316;2023-07-20T08:35:34;23.00;99.90
3626;DHT22;1827;50.534;8.316;2023-07-20T08:38:00;22.60;99.90
3626;DHT22;1827;50.534;8.316;2023-07-20T08:40:26;22.50;99.90
3626;DHT22;1827;50.534;8.316;2023-07-20T08:42:52;22.80;99.90
3626;DHT22;1827;50.534;8.316;2023-07-20T08:45:18;23.10;99.90
3626;DHT22;1827;50.534;8.316;2023-07-20T08:47:44;23.30;99.90
3626;DHT22;1827;50.534;8.316;2023-07-20T08:50:10;23.10;99.90
3626;DHT22;1827;50.534;8.316;2023-07-20T08:52:36;22.70;99.90
3626;DHT22;1827;50.534;8.316;2023-07-20T08:55:02;22.40;99.90
3626;DHT22;1827;50.534;8.316;2023-07-20T08:57:32;22.10;99.90
3626;DHT22;1827;50.534;8.316;2023-07-20T08:59:58;22.50;99.90
3626;DHT22;1827;50.534;8.316;2023-07-20T09:02:25;22.50;99.90
3626;DHT22;1827;50.534;8.316;2023-07-20T09:04:52;22.70;99.90
3626;DHT22;1827;50.534;8.316;2023-07-20T09:07:17;23.30;99.90
3626;DHT22;1827;50.534;8.316;2023-07-20T09:09:45;23.20;99.90
3626;DHT22;1827;50.534;8.316;2023-07-20T09:12:14;22.90;99.90
3626;DHT22;1827;50.534;8.316;2023-07-20T09:14:44;23.30;99.90
3626;DHT22;1827;50.534;8.316;2023-07-20T09:17:13;23.40;99.90
3626;DHT22;1827;50.534;8.316;2023-07-20T09:19:45;23.80;99.90
3626;DHT22;1827;50.534;8.316;2023-07-20T09:22:11;23.50;99.90
3626;DHT22;1827;50.534;8.316;2023-07-20T09:24:36;24.10;99.90
3626;DHT22;1827;50.534;8.316;2023-07-20T09:27:02;23.90;99.90
3626;DHT22;1827;50.534;8.316;2023-07-20T09:29:30;23.70;99.90
3626;DHT22;1827;50.534;8.316;2023-07-20T09:32:03;24.00;99.90
3626;DHT22;1827;50.534;8.316;2023-07-20T09:34:29;24.80;99.90
3626;DHT22;1827;50.534;8.316;2023-07-20T09:36:57;25.10;99.90
3626;DHT22;1827;50.534;8.316;2023-07-20T09:39:23;25.90;99.90
3626;DHT22;1827;50.534;8.316;2023-07-20T09:41:49;25.40;99.90
3626;DHT22;1827;50.534;8.316;2023-07-20T09:44:15;25.50;99.90
3626;DHT22;1827;50.534;8.316;2023-07-20T09:46:41;25.70;99.90
3626;DHT22;1827;50.534;8.316;2023-07-20T09:49:11;26.30;99.90
3626;DHT22;1827;50.534;8.316;2023-07-20T09:51:37;25.90;99.90
3626;DHT22;1827;50.534;8.316;2023-07-20T09:54:03;25.10;99.90
3626;DHT22;1827;50.534;8.316;2023-07-20T09:56:29;24.20;99.90
3626;DHT22;1827;50.534;8.316;2023-07-20T09:58:55;23.30;99.90
3626;DHT22;1827;50.534;8.316;2023-07-20T10:01:21;23.60;99.90
3626;DHT22;1827;50.534;8.316;2023-07-20T10:03:47;24.30;99.90
3626;DHT22;1827;50.534;8.316;2023-07-20T10:06:18;25.20;99.90
3626;DHT22;1827;50.534;8.316;2023-07-20T10:08:45;25.50;99.90
3626;DHT22;1827;50.534;8.316;2023-07-20T10:11:13;25.40;99.90
3626;DHT22;1827;50.534;8.316;2023-07-20T10:13:40;24.70;99.90
3626;DHT22;1827;50.534;8.316;2023-07-20T10:16:07;24.30;99.90
3626;DHT22;1827;50.534;8.316;2023-07-20T10:21:00;23.40;99.90
3626;DHT22;1827;50.534;8.316;2023-07-20T10:23:28;23.50;99.90
3626;DHT22;1827;50.534;8.316;2023-07-20T10:25:54;24.10;99.90
3626;DHT22;1827;50.534;8.316;2023-07-20T10:28:20;24.60;99.90
3626;DHT22;1827;50.534;8.316;2023-07-20T10:30:48;25.70;99.90
3626;DHT22;1827;50.534;8.316;2023-07-20T10:33:15;24.90;99.90
3626;DHT22;1827;50.534;8.316;2023-07-20T10:35:52;24.90;99.90
3626;DHT22;1827;50.534;8.316;2023-07-20T10:38:18;24.40;99.90
3626;DHT22;1827;50.534;8.316;2023-07-20T10:40:43;23.80;99.90
3626;DHT22;1827;50.534;8.316;2023-07-20T10:43:19;23.80;99.90
3626;DHT22;1827;50.534;8.316;2023-07-20T10:45:51;24.20;99.90
3626;DHT22;1827;50.534;8.316;2023-07-20T10:48:23;23.60;99.90
3626;DHT22;1827;50.534;8.316;2023-07-20T10:51:11;23.90;99.90
3626;DHT22;1827;50.534;8.316;2023-07-20T10:53:39;24.20;99.90
3626;DHT22;1827;50.534;8.316;2023-07-20T10:56:11;25.50;99.90
3626;DHT22;1827;50.534;8.316;2023-07-20T10:58:37;26.10;99.90
3626;DHT22;1827;50.534;8.316;2023-07-20T11:01:03;26.20;99.90
3626;DHT22;1827;50.534;8.316;2023-07-20T11:03:29;25.70;99.90
3626;DHT22;1827;50.534;8.316;2023-07-20T11:05:56;25.50;99.90
3626;DHT22;1827;50.534;8.316;2023-07-20T11:08:38;25.00;99.90
3626;DHT22;1827;50.534;8.316;2023-07-20T11:16:47;24.10;99.90
3626;DHT22;1827;50.534;8.316;2023-07-20T11:19:13;23.90;99.90
3626;DHT22;1827;50.534;8.316;2023-07-20T11:21:43;23.70;99.90
3626;DHT22;1827;50.534;8.316;2023-07-20T11:24:09;23.70;99.90
3626;DHT22;1827;50.534;8.316;2023-07-20T11:29:13;23.80;99.90
3626;DHT22;1827;50.534;8.316;2023-07-20T11:31:39;23.80;99.90
3626;DHT22;1827;50.534;8.316;2023-07-20T11:34:06;23.70;99.90
3626;DHT22;1827;50.534;8.316;2023-07-20T11:36:32;23.80;99.90
3626;DHT22;1827;50.534;8.316;2023-07-20T11:38:58;23.60;99.90
3626;DHT22;1827;50.534;8.316;2023-07-20T11:41:24;23.40;99.90
3626;DHT22;1827;50.534;8.316;2023-07-20T11:43:51;23.70;99.90
3626;DHT22;1827;50.534;8.316;2023-07-20T11:46:16;24.20;99.90
3626;DHT22;1827;50.534;8.316;2023-07-20T11:48:42;24.20;99.90
3626;DHT22;1827;50.534;8.316;2023-07-20T11:51:13;24.10;99.90
3626;DHT22;1827;50.534;8.316;2023-07-20T11:53:38;24.20;99.90
3626;DHT22;1827;50.534;8.316;2023-07-20T11:56:04;23.80;99.90
3626;DHT22;1827;50.534;8.316;2023-07-20T11:58:29;23.50;99.90
3626;DHT22;1827;50.534;8.316;2023-07-20T12:00:55;23.20;99.90
3626;DHT22;1827;50.534;8.316;2023-07-20T12:03:21;23.30;99.90
3626;DHT22;1827;50.534;8.316;2023-07-20T12:05:46;23.60;99.90
3626;DHT22;1827;50.534;8.316;2023-07-20T12:08:12;23.50;99.90
3626;DHT22;1827;50.534;8.316;2023-07-20T12:10:39;23.50;99.90
3626;DHT22;1827;50.534;8.316;2023-07-20T12:13:09;23.60;99.90
3626;DHT22;1827;50.534;8.316;2023-07-20T12:15:35;23.60;99.90
3626;DHT22;1827;50.534;8.316;2023-07-20T12:18:01;23.50;99.90
3626;DHT22;1827;50.534;8.316;2023-07-20T12:20:34;23.90;99.90
3626;DHT22;1827;50.534;8.316;2023-07-20T12:23:10;24.20;99.90
3626;DHT22;1827;50.534;8.316;2023-07-20T12:25:37;24.50;99.90
3626;DHT22;1827;50.534;8.316;2023-07-20T12:28:08;24.90;99.90
3626;DHT22;1827;50.534;8.316;2023-07-20T12:30:33;26.00;99.90
3626;DHT22;1827;50.534;8.316;2023-07-20T12:32:59;26.40;99.90
3626;DHT22;1827;50.534;8.316;2023-07-20T12:35:25;27.20;99.90
3626;DHT22;1827;50.534;8.316;2023-07-20T12:37:50;27.50;99.90
3626;DHT22;1827;50.534;8.316;2023-07-20T12:40:17;27.20;99.90
3626;DHT22;1827;50.534;8.316;2023-07-20T12:42:42;27.40;99.90
3626;DHT22;1827;50.534;8.316;2023-07-20T12:45:08;26.80;99.90
3626;DHT22;1827;50.534;8.316;2023-07-20T12:47:34;25.90;99.90
3626;DHT22;1827;50.534;8.316;2023-07-20T12:49:59;25.60;99.90
3626;DHT22;1827;50.534;8.316;2023-07-20T12:52:25;26.30;99.90
3626;DHT22;1827;50.534;8.316;2023-07-20T12:54:51;26.70;99.90
3626;DHT22;1827;50.534;8.316;2023-07-20T12:57:16;27.70;99.90
3626;DHT22;1827;50.534;8.316;2023-07-20T12:59:42;27.70;99.90
3626;DHT22;1827;50.534;8.316;2023-07-20T13:02:08;27.30;99.90
3626;DHT22;1827;50.534;8.316;2023-07-20T13:04:35;27.50;99.90
3626;DHT22;1827;50.534;8.316;2023-07-20T13:07:00;27.90;99.90
3626;DHT22;1827;50.534;8.316;2023-07-20T13:09:26;27.20;99.90
3626;DHT22;1827;50.534;8.316;2023-07-20T13:11:51;27.30;99.90
3626;DHT22;1827;50.534;8.316;2023-07-20T13:14:18;27.60;99.90
3626;DHT22;1827;50.534;8.316;2023-07-20T13:16:43;27.00;99.90
3626;DHT22;1827;50.534;8.316;2023-07-20T13:19:09;26.30;99.90
3626;DHT22;1827;50.534;8.316;2023-07-20T13:21:34;26.50;99.90
3626;DHT22;1827;50.534;8.316;2023-07-20T13:24:00;26.30;99.90
3626;DHT22;1827;50.534;8.316;2023-07-20T13:26:26;26.50;99.90
3626;DHT22;1827;50.534;8.316;2023-07-20T13:28:51;26.30;99.90
3626;DHT22;1827;50.534;8.316;2023-07-20T13:31:17;26.90;99.90
3626;DHT22;1827;50.534;8.316;2023-07-20T13:33:43;27.10;99.90
3626;DHT22;1827;50.534;8.316;2023-07-20T13:36:09;26.90;99.90
3626;DHT22;1827;50.534;8.316;2023-07-20T13:38:34;27.00;99.90
3626;DHT22;1827;50.534;8.316;2023-07-20T13:41:00;26.40;99.90
3626;DHT22;1827;50.534;8.316;2023-07-20T13:43:25;26.50;99.90
3626;DHT22;1827;50.534;8.316;2023-07-20T13:45:52;26.20;99.90
3626;DHT22;1827;50.534;8.316;2023-07-20T13:48:17;26.10;99.90
3626;DHT22;1827;50.534;8.316;2023-07-20T13:50:45;26.00;99.90
3626;DHT22;1827;50.534;8.316;2023-07-20T13:53:11;25.60;99.90
3626;DHT22;1827;50.534;8.316;2023-07-20T13:55:37;25.40;99.90
3626;DHT22;1827;50.534;8.316;2023-07-20T13:58:03;25.00;99.90
3626;DHT22;1827;50.534;8.316;2023-07-20T14:00:30;24.80;99.90
3626;DHT22;1827;50.534;8.316;2023-07-20T14:02:58;24.70;99.90
3626;DHT22;1827;50.534;8.316;2023-07-20T14:05:24;24.20;99.90
3626;DHT22;1827;50.534;8.316;2023-07-20T14:07:50;24.30;99.90
3626;DHT22;1827;50.534;8.316;2023-07-20T14:10:15;24.40;99.90
3626;DHT22;1827;50.534;8.316;2023-07-20T14:12:41;24.60;99.90
3626;DHT22;1827;50.534;8.316;2023-07-20T14:15:06;24.90;99.90
3626;DHT22;1827;50.534;8.316;2023-07-20T14:17:32;24.70;99.90
3626;DHT22;1827;50.534;8.316;2023-07-20T14:19:58;24.60;99.90
3626;DHT22;1827;50.534;8.316;2023-07-20T14:22:23;24.60;99.90
3626;DHT22;1827;50.534;8.316;2023-07-20T14:24:49;24.90;99.90
3626;DHT22;1827;50.534;8.316;2023-07-20T14:27:14;24.80;99.90
3626;DHT22;1827;50.534;8.316;2023-07-20T14:29:40;24.50;99.90
3626;DHT22;1827;50.534;8.316;2023-07-20T14:32:05;24.20;99.90
3626;DHT22;1827;50.534;8.316;2023-07-20T14:34:32;24.50;99.90
3626;DHT22;1827;50.534;8.316;2023-07-20T14:36:59;24.50;99.90
3626;DHT22;1827;50.534;8.316;2023-07-20T14:39:25;24.40;99.90
3626;DHT22;1827;50.534;8.316;2023-07-20T14:41:50;24.70;99.90
3626;DHT22;1827;50.534;8.316;2023-07-20T14:44:16;24.80;99.90
3626;DHT22;1827;50.534;8.316;2023-07-20T14:46:42;24.50;99.90
3626;DHT22;1827;50.534;8.316;2023-07-20T14:49:07;24.40;99.90
3626;DHT22;1827;50.534;8.316;2023-07-20T14:51:33;24.50;99.90
3626;DHT22;1827;50.534;8.316;2023-07-20T14:54:01;24.80;99.90
3626;DHT22;1827;50.534;8.316;2023-07-20T14:56:27;24.70;99.90
3626;DHT22;1827;50.534;8.316;2023-07-20T14:58:52;25.10;99.90
3626;DHT22;1827;50.534;8.316;2023-07-20T15:01:18;25.50;99.90
3626;DHT22;1827;50.534;8.316;2023-07-20T15:03:43;26.30;99.90
3626;DHT22;1827;50.534;8.316;2023-07-20T15:06:12;27.00;99.90
3626;DHT22;1827;50.534;8.316;2023-07-20T15:08:38;27.30;99.90
3626;DHT22;1827;50.534;8.316;2023-07-20T15:11:03;26.60;99.90
3626;DHT22;1827;50.534;8.316;2023-07-20T15:13:29;26.20;99.90
3626;DHT22;1827;50.534;8.316;2023-07-20T15:15:54;25.70;99.90
3626;DHT22;1827;50.534;8.316;2023-07-20T15:18:20;26.00;99.90
3626;DHT22;1827;50.534;8.316;2023-07-20T15:20:47;25.90;99.90
3626;DHT22;1827;50.534;8.316;2023-07-20T15:23:13;25.50;99.90
3626;DHT22;1827;50.534;8.316;2023-07-20T15:25:39;25.20;99.90
3626;DHT22;1827;50.534;8.316;2023-07-20T15:28:06;25.20;99.90
3626;DHT22;1827;50.534;8.316;2023-07-20T15:30:32;25.70;99.90
3626;DHT22;1827;50.534;8.316;2023-07-20T15:32:57;26.20;99.90
3626;DHT22;1827;50.534;8.316;2023-07-20T15:35:23;26.40;99.90
3626;DHT22;1827;50.534;8.316;2023-07-20T15:37:49;26.30;99.90
3626;DHT22;1827;50.534;8.316;2023-07-20T15:40:14;26.40;99.90
3626;DHT22;1827;50.534;8.316;2023-07-20T15:42:40;26.60;99.90
3626;DHT22;1827;50.534;8.316;2023-07-20T15:45:06;26.90;99.90
3626;DHT22;1827;50.534;8.316;2023-07-20T15:47:31;26.60;99.90
3626;DHT22;1827;50.534;8.316;2023-07-20T15:49:57;26.80;99.90
3626;DHT22;1827;50.534;8.316;2023-07-20T15:52:23;25.70;99.90
3626;DHT22;1827;50.534;8.316;2023-07-20T15:54:48;25.80;99.90
3626;DHT22;1827;50.534;8.316;2023-07-20T15:57:15;26.00;99.90
3626;DHT22;1827;50.534;8.316;2023-07-20T15:59:42;26.00;99.90
3626;DHT22;1827;50.534;8.316;2023-07-20T16:02:07;26.30;99.90
3626;DHT22;1827;50.534;8.316;2023-07-20T16:04:33;26.30;99.90
3626;DHT22;1827;50.534;8.316;2023-07-20T16:06:59;25.90;99.90
3626;DHT22;1827;50.534;8.316;2023-07-20T16:09:24;25.20;99.90
3626;DHT22;1827;50.534;8.316;2023-07-20T16:11:50;25.00;99.90
3626;DHT22;1827;50.534;8.316;2023-07-20T16:14:15;24.90;99.90
3626;DHT22;1827;50.534;8.316;2023-07-20T16:16:41;24.90;99.90
3626;DHT22;1827;50.534;8.316;2023-07-20T16:19:06;24.90;99.90
3626;DHT22;1827;50.534;8.316;2023-07-20T16:21:32;24.10;99.90